sensor_id;sensor_type;location;lat;lon;timestamp;pressure;altitude;pressure_sealevel;temperature;humidity
64698;BME280;51124;53.394;-6.294;2023-07-31T00:01:58;99509.27;;;21.54;11.93
64698;BME280;51124;53.394;-6.294;2023-07-31T00:04:31;99514.18;;;21.20;11.85
64698;BME280;51124;53.394;-6.294;2023-07-31T00:07:08;99512.65;;;20.85;11.85
64698;BME280;51124;53.394;-6.294;2023-07-31T00:09:36;99510.86;;;20.95;11.89
64698;BME280;51124;53.394;-6.294;2023-07-31T00:12:03;99508.30;;;20.66;11.97
64698;BME280;51124;53.394;-6.294;2023-07-31T00:14:31;99499.19;;;21.07;11.87
64698;BME280;51124;53.394;-6.294;2023-07-31T00:16:58;99492.75;;;20.89;11.74
64698;BME280;51124;53.394;-6.294;2023-07-31T00:19:25;99492.17;;;20.51;11.81
64698;BME280;51124;53.394;-6.294;2023-07-31T00:21:52;99496.18;;;20.90;11.90
64698;BME280;51124;53.394;-6.294;2023-07-31T00:24:20;99487.99;;;22.33;12.37
64698;BME280;51124;53.394;-6.294;2023-07-31T00:26:48;99484.19;;;21.45;12.84
64698;BME280;51124;53.394;-6.294;2023-07-31T00:29:15;99486.73;;;20.77;12.60
64698;BME280;51124;53.394;-6.294;2023-07-31T00:31:44;99487.73;;;24.69;12.72
64698;BME280;51124;53.394;-6.294;2023-07-31T00:34:12;99485.29;;;23.86;13.46
64698;BME280;51124;53.394;-6.294;2023-07-31T00:36:39;99487.78;;;22.85;13.91
64698;BME280;51124;53.394;-6.294;2023-07-31T00:39:06;99492.99;;;23.42;14.09
64698;BME280;51124;53.394;-6.294;2023-07-31T00:41:34;99490.07;;;22.96;14.39
64698;BME280;51124;53.394;-6.294;2023-07-31T00:44:01;99489.10;;;23.08;14.42
64698;BME280;51124;53.394;-6.294;2023-07-31T00:46:29;99486.17;;;22.22;14.48
64698;BME280;51124;53.394;-6.294;2023-07-31T00:48:56;99491.16;;;22.36;14.57
64698;BME280;51124;53.394;-6.294;2023-07-31T00:51:24;99484.37;;;22.96;14.52
64698;BME280;51124;53.394;-6.294;2023-07-31T00:53:52;99484.45;;;23.09;14.51
64698;BME280;51124;53.394;-6.294;2023-07-31T00:56:19;99488.87;;;22.25;14.69
64698;BME280;51124;53.394;-6.294;2023-07-31T00:58:47;99489.53;;;22.77;14.55
64698;BME280;51124;53.394;-6.294;2023-07-31T01:01:14;99492.73;;;23.34;14.60
64698;BME280;51124;53.394;-6.294;2023-07-31T01:03:42;99496.50;;;22.65;14.70
64698;BME280;51124;53.394;-6.294;2023-07-31T01:06:18;99493.83;;;22.13;14.69
64698;BME280;51124;53.394;-6.294;2023-07-31T01:08:44;99487.26;;;22.72;14.54
64698;BME280;51124;53.394;-6.294;2023-07-31T01:11:11;99493.49;;;22.36;14.80
64698;BME280;51124;53.394;-6.294;2023-07-31T01:13:31;99488.65;;;22.48;14.58
64698;BME280;51124;53.394;-6.294;2023-07-31T01:15:58;99493.28;;;22.53;14.74
64698;BME280;51124;53.394;-6.294;2023-07-31T01:18:26;99485.71;;;22.75;14.65
64698;BME280;51124;53.394;-6.294;2023-07-31T01:20:57;99480.63;;;21.30;14.83
64698;BME280;51124;53.394;-6.294;2023-07-31T01:23:42;99483.84;;;20.59;14.33
64698;BME280;51124;53.394;-6.294;2023-07-31T01:26:00;99482.13;;;20.21;13.73
64698;BME280;51124;53.394;-6.294;2023-07-31T01:28:24;99476.48;;;20.64;13.41
64698;BME280;51124;53.394;-6.294;2023-07-31T01:30:53;99475.77;;;21.08;13.26
64698;BME280;51124;53.394;-6.294;2023-07-31T01:33:22;99469.25;;;20.54;13.15
64698;BME280;51124;53.394;-6.294;2023-07-31T01:35:50;99476.06;;;20.31;12.84
64698;BME280;51124;53.394;-6.294;2023-07-31T01:38:22;99475.04;;;20.46;12.70
64698;BME280;51124;53.394;-6.294;2023-07-31T01:40:53;99468.13;;;20.96;12.33
64698;BME280;51124;53.394;-6.294;2023-07-31T01:43:20;99469.03;;;19.85;12.47
64698;BME280;51124;53.394;-6.294;2023-07-31T01:45:48;99466.63;;;19.44;12.32
64698;BME280;51124;53.394;-6.294;2023-07-31T01:48:15;99472.91;;;20.38;12.24
64698;BME280;51124;53.394;-6.294;2023-07-31T01:50:42;99473.26;;;20.71;12.20
64698;BME280;51124;53.394;-6.294;2023-07-31T01:53:09;99478.04;;;20.73;12.12
64698;BME280;51124;53.394;-6.294;2023-07-31T01:55:36;99476.95;;;20.18;12.15
64698;BME280;51124;53.394;-6.294;2023-07-31T01:58:03;99481.48;;;20.32;12.11
64698;BME280;51124;53.394;-6.294;2023-07-31T02:00:31;99478.68;;;20.08;12.09
64698;BME280;51124;53.394;-6.294;2023-07-31T02:02:59;99471.68;;;20.39;12.05
64698;BME280;51124;53.394;-6.294;2023-07-31T02:05:26;99476.40;;;20.72;12.08
64698;BME280;51124;53.394;-6.294;2023-07-31T02:07:53;99478.23;;;20.94;11.86
64698;BME280;51124;53.394;-6.294;2023-07-31T02:10:20;99480.98;;;19.81;12.07
64698;BME280;51124;53.394;-6.294;2023-07-31T02:12:48;99481.43;;;20.40;11.95
64698;BME280;51124;53.394;-6.294;2023-07-31T02:15:15;99480.19;;;20.03;11.85
64698;BME280;51124;53.394;-6.294;2023-07-31T02:17:42;99487.42;;;19.18;12.06
64698;BME280;51124;53.394;-6.294;2023-07-31T02:20:11;99484.87;;;19.27;12.07
64698;BME280;51124;53.394;-6.294;2023-07-31T02:22:38;99477.56;;;19.83;11.97
64698;BME280;51124;53.394;-6.294;2023-07-31T02:25:06;99481.16;;;20.38;11.95
64698;BME280;51124;53.394;-6.294;2023-07-31T02:27:33;99479.54;;;20.32;11.79
64698;BME280;51124;53.394;-6.294;2023-07-31T02:30:00;99473.05;;;20.74;11.73
64698;BME280;51124;53.394;-6.294;2023-07-31T02:32:28;99476.36;;;20.14;11.86
64698;BME280;51124;53.394;-6.294;2023-07-31T02:34:55;99470.90;;;20.57;11.84
64698;BME280;51124;53.394;-6.294;2023-07-31T02:37:22;99463.07;;;20.02;11.86
64698;BME280;51124;53.394;-6.294;2023-07-31T02:39:50;99467.42;;;20.27;11.96
64698;BME280;51124;53.394;-6.294;2023-07-31T02:42:17;99463.47;;;20.26;11.98
64698;BME280;51124;53.394;-6.294;2023-07-31T02:44:44;99470.66;;;20.04;11.98
64698;BME280;51124;53.394;-6.294;2023-07-31T02:47:12;99471.72;;;19.78;11.96
64698;BME280;51124;53.394;-6.294;2023-07-31T02:49:39;99466.26;;;19.92;11.78
64698;BME280;51124;53.394;-6.294;2023-07-31T02:52:06;99471.80;;;20.45;11.92
64698;BME280;51124;53.394;-6.294;2023-07-31T02:54:34;99469.57;;;20.09;12.07
64698;BME280;51124;53.394;-6.294;2023-07-31T02:57:01;99473.80;;;19.74;12.01
64698;BME280;51124;53.394;-6.294;2023-07-31T02:59:30;99464.61;;;20.05;12.09
64698;BME280;51124;53.394;-6.294;2023-07-31T03:01:57;99464.01;;;19.84;12.10
64698;BME280;51124;53.394;-6.294;2023-07-31T03:04:24;99462.67;;;20.71;12.04
64698;BME280;51124;53.394;-6.294;2023-07-31T03:06:51;99452.73;;;20.99;11.87
64698;BME280;51124;53.394;-6.294;2023-07-31T03:09:18;99455.89;;;18.91;12.31
64698;BME280;51124;53.394;-6.294;2023-07-31T03:11:46;99452.23;;;18.68;12.24
64698;BME280;51124;53.394;-6.294;2023-07-31T03:14:14;99454.08;;;19.94;11.91
64698;BME280;51124;53.394;-6.294;2023-07-31T03:16:41;99449.40;;;20.31;11.79
64698;BME280;51124;53.394;-6.294;2023-07-31T03:19:08;99452.98;;;19.74;11.92
64698;BME280;51124;53.394;-6.294;2023-07-31T03:21:35;99455.18;;;21.68;12.26
64698;BME280;51124;53.394;-6.294;2023-07-31T03:24:04;99464.66;;;21.39;12.56
64698;BME280;51124;53.394;-6.294;2023-07-31T03:26:33;99464.13;;;20.53;12.74
64698;BME280;51124;53.394;-6.294;2023-07-31T03:29:00;99467.95;;;22.79;12.62
64698;BME280;51124;53.394;-6.294;2023-07-31T03:31:27;99465.50;;;22.81;13.18
64698;BME280;51124;53.394;-6.294;2023-07-31T03:33:55;99462.26;;;22.42;13.92
64698;BME280;51124;53.394;-6.294;2023-07-31T03:36:22;99458.40;;;22.09;13.84
64698;BME280;51124;53.394;-6.294;2023-07-31T03:38:50;99461.22;;;21.69;14.24
64698;BME280;51124;53.394;-6.294;2023-07-31T03:41:18;99460.19;;;21.53;14.38
64698;BME280;51124;53.394;-6.294;2023-07-31T03:43:46;99460.91;;;22.63;14.26
64698;BME280;51124;53.394;-6.294;2023-07-31T03:46:13;99459.50;;;21.88;14.79
64698;BME280;51124;53.394;-6.294;2023-07-31T03:48:41;99450.52;;;22.15;14.47
64698;BME280;51124;53.394;-6.294;2023-07-31T03:51:08;99440.60;;;21.80;14.61
64698;BME280;51124;53.394;-6.294;2023-07-31T03:53:36;99432.89;;;21.82;14.68
64698;BME280;51124;53.394;-6.294;2023-07-31T03:56:04;99437.02;;;22.32;14.56
64698;BME280;51124;53.394;-6.294;2023-07-31T03:58:31;99436.51;;;22.02;14.71
64698;BME280;51124;53.394;-6.294;2023-07-31T04:00:58;99442.74;;;21.57;14.80
64698;BME280;51124;53.394;-6.294;2023-07-31T04:03:26;99440.42;;;22.20;14.62
64698;BME280;51124;53.394;-6.294;2023-07-31T04:05:56;99434.58;;;22.39;14.78
64698;BME280;51124;53.394;-6.294;2023-07-31T04:08:23;99432.92;;;22.97;14.58
64698;BME280;51124;53.394;-6.294;2023-07-31T04:10:51;99435.79;;;21.44;14.84
64698;BME280;51124;53.394;-6.294;2023-07-31T04:13:18;99436.34;;;22.16;14.60
64698;BME280;51124;53.394;-6.294;2023-07-31T04:15:50;99435.18;;;22.16;14.61
64698;BME280;51124;53.394;-6.294;2023-07-31T04:18:17;99449.66;;;21.65;14.80
64698;BME280;51124;53.394;-6.294;2023-07-31T04:20:44;99458.29;;;20.34;14.54
64698;BME280;51124;53.394;-6.294;2023-07-31T04:23:11;99459.83;;;18.85;14.25
64698;BME280;51124;53.394;-6.294;2023-07-31T04:25:39;99465.89;;;18.88;13.84
64698;BME280;51124;53.394;-6.294;2023-07-31T04:28:06;99475.29;;;19.34;13.30
64698;BME280;51124;53.394;-6.294;2023-07-31T04:30:33;99480.29;;;20.78;13.00
64698;BME280;51124;53.394;-6.294;2023-07-31T04:33:00;99480.77;;;19.60;13.10
64698;BME280;51124;53.394;-6.294;2023-07-31T04:35:28;99473.86;;;18.97;12.96
64698;BME280;51124;53.394;-6.294;2023-07-31T04:37:55;99459.20;;;20.11;12.55
64698;BME280;51124;53.394;-6.294;2023-07-31T04:40:22;99452.65;;;20.38;12.45
64698;BME280;51124;53.394;-6.294;2023-07-31T04:42:50;99453.49;;;19.18;12.51
64698;BME280;51124;53.394;-6.294;2023-07-31T04:45:17;99453.67;;;19.28;12.59
64698;BME280;51124;53.394;-6.294;2023-07-31T04:47:44;99447.51;;;19.46;12.57
64698;BME280;51124;53.394;-6.294;2023-07-31T04:50:12;99446.96;;;19.56;12.40
64698;BME280;51124;53.394;-6.294;2023-07-31T04:52:39;99445.32;;;19.40;12.17
64698;BME280;51124;53.394;-6.294;2023-07-31T04:55:07;99448.09;;;19.37;12.11
64698;BME280;51124;53.394;-6.294;2023-07-31T04:57:34;99447.93;;;19.84;12.11
64698;BME280;51124;53.394;-6.294;2023-07-31T05:00:01;99446.02;;;20.12;12.03
64698;BME280;51124;53.394;-6.294;2023-07-31T05:02:29;99452.95;;;20.06;11.83
64698;BME280;51124;53.394;-6.294;2023-07-31T05:04:56;99455.01;;;19.71;12.01
64698;BME280;51124;53.394;-6.294;2023-07-31T05:07:23;99463.68;;;19.67;12.03
64698;BME280;51124;53.394;-6.294;2023-07-31T05:09:50;99469.48;;;20.52;11.86
64698;BME280;51124;53.394;-6.294;2023-07-31T05:12:18;99474.52;;;20.00;12.05
64698;BME280;51124;53.394;-6.294;2023-07-31T05:14:45;99480.49;;;19.44;12.02
64698;BME280;51124;53.394;-6.294;2023-07-31T05:17:12;99481.08;;;19.23;12.04
64698;BME280;51124;53.394;-6.294;2023-07-31T05:19:40;99476.79;;;19.98;11.89
64698;BME280;51124;53.394;-6.294;2023-07-31T05:22:07;99474.02;;;19.81;12.06
64698;BME280;51124;53.394;-6.294;2023-07-31T05:24:34;99464.55;;;19.74;12.25
64698;BME280;51124;53.394;-6.294;2023-07-31T05:27:02;99465.40;;;19.53;12.28
64698;BME280;51124;53.394;-6.294;2023-07-31T05:29:29;99470.18;;;20.62;11.63
64698;BME280;51124;53.394;-6.294;2023-07-31T05:31:56;99467.82;;;20.03;11.65
64698;BME280;51124;53.394;-6.294;2023-07-31T05:34:23;99467.65;;;19.35;11.96
64698;BME280;51124;53.394;-6.294;2023-07-31T05:36:51;99461.84;;;20.33;11.72
64698;BME280;51124;53.394;-6.294;2023-07-31T05:39:18;99466.80;;;20.29;11.83
64698;BME280;51124;53.394;-6.294;2023-07-31T05:41:45;99462.89;;;20.46;11.57
64698;BME280;51124;53.394;-6.294;2023-07-31T05:44:12;99463.08;;;20.54;11.67
64698;BME280;51124;53.394;-6.294;2023-07-31T05:46:40;99460.69;;;20.76;11.57
64698;BME280;51124;53.394;-6.294;2023-07-31T05:49:07;99458.26;;;21.16;11.67
64698;BME280;51124;53.394;-6.294;2023-07-31T05:51:34;99462.96;;;19.68;12.05
64698;BME280;51124;53.394;-6.294;2023-07-31T05:54:01;99455.27;;;20.11;11.76
64698;BME280;51124;53.394;-6.294;2023-07-31T05:56:29;99458.55;;;19.90;12.04
64698;BME280;51124;53.394;-6.294;2023-07-31T05:58:56;99453.74;;;19.40;12.11
64698;BME280;51124;53.394;-6.294;2023-07-31T06:01:21;99456.69;;;20.37;12.09
64698;BME280;51124;53.394;-6.294;2023-07-31T06:03:44;99451.11;;;19.41;12.10
64698;BME280;51124;53.394;-6.294;2023-07-31T06:06:18;99453.27;;;20.54;11.89
64698;BME280;51124;53.394;-6.294;2023-07-31T06:08:51;99448.54;;;19.67;11.95
64698;BME280;51124;53.394;-6.294;2023-07-31T06:11:24;99440.43;;;19.85;11.85
64698;BME280;51124;53.394;-6.294;2023-07-31T06:13:58;99440.72;;;19.43;11.88
64698;BME280;51124;53.394;-6.294;2023-07-31T06:16:31;99434.68;;;20.29;11.59
64698;BME280;51124;53.394;-6.294;2023-07-31T06:19:05;99437.27;;;22.36;12.14
64698;BME280;51124;53.394;-6.294;2023-07-31T06:21:38;99434.01;;;21.70;12.53
64698;BME280;51124;53.394;-6.294;2023-07-31T06:24:12;99432.47;;;20.94;12.31
64698;BME280;51124;53.394;-6.294;2023-07-31T06:26:45;99429.40;;;23.01;12.91
64698;BME280;51124;53.394;-6.294;2023-07-31T06:29:20;99425.31;;;22.93;13.57
64698;BME280;51124;53.394;-6.294;2023-07-31T06:31:53;99412.68;;;22.11;13.76
64698;BME280;51124;53.394;-6.294;2023-07-31T06:34:27;99410.25;;;22.70;13.88
64698;BME280;51124;53.394;-6.294;2023-07-31T06:37:01;99409.63;;;22.18;14.21
64698;BME280;51124;53.394;-6.294;2023-07-31T06:39:34;99416.16;;;21.88;14.12
64698;BME280;51124;53.394;-6.294;2023-07-31T06:42:08;99421.70;;;22.10;14.35
64698;BME280;51124;53.394;-6.294;2023-07-31T06:44:41;99421.54;;;22.06;14.48
64698;BME280;51124;53.394;-6.294;2023-07-31T06:47:15;99434.59;;;21.36;14.65
64698;BME280;51124;53.394;-6.294;2023-07-31T06:49:48;99440.65;;;22.53;14.43
64698;BME280;51124;53.394;-6.294;2023-07-31T06:52:22;99447.17;;;22.30;14.40
64698;BME280;51124;53.394;-6.294;2023-07-31T06:55:03;99454.13;;;21.01;14.68
64698;BME280;51124;53.394;-6.294;2023-07-31T06:57:27;99455.98;;;21.63;14.63
64698;BME280;51124;53.394;-6.294;2023-07-31T07:00:03;99452.47;;;22.27;14.61
64698;BME280;51124;53.394;-6.294;2023-07-31T07:02:27;99446.15;;;22.60;14.47
64698;BME280;51124;53.394;-6.294;2023-07-31T07:05:01;99441.41;;;22.31;14.53
64698;BME280;51124;53.394;-6.294;2023-07-31T07:07:35;99432.77;;;22.39;14.46
64698;BME280;51124;53.394;-6.294;2023-07-31T07:10:09;99428.59;;;22.15;14.71
64698;BME280;51124;53.394;-6.294;2023-07-31T07:12:43;99418.93;;;22.04;14.92
64698;BME280;51124;53.394;-6.294;2023-07-31T07:15:16;99423.93;;;21.63;15.01
64698;BME280;51124;53.394;-6.294;2023-07-31T07:17:52;99424.70;;;20.32;14.80
64698;BME280;51124;53.394;-6.294;2023-07-31T07:20:17;99424.43;;;20.39;14.20
64698;BME280;51124;53.394;-6.294;2023-07-31T07:22:41;99425.03;;;19.69;14.28
64698;BME280;51124;53.394;-6.294;2023-07-31T07:25:14;99426.27;;;20.11;13.86
64698;BME280;51124;53.394;-6.294;2023-07-31T07:27:47;99427.94;;;20.22;13.68
64698;BME280;51124;53.394;-6.294;2023-07-31T07:30:21;99435.67;;;19.84;13.41
64698;BME280;51124;53.394;-6.294;2023-07-31T07:32:54;99431.12;;;19.83;13.26
64698;BME280;51124;53.394;-6.294;2023-07-31T07:35:28;99433.61;;;20.57;12.86
64698;BME280;51124;53.394;-6.294;2023-07-31T07:38:01;99435.39;;;20.92;12.61
64698;BME280;51124;53.394;-6.294;2023-07-31T07:40:38;99431.41;;;21.30;12.41
64698;BME280;51124;53.394;-6.294;2023-07-31T07:43:01;99428.91;;;20.83;12.38
64698;BME280;51124;53.394;-6.294;2023-07-31T07:45:35;99417.00;;;21.61;12.07
64698;BME280;51124;53.394;-6.294;2023-07-31T07:48:08;99414.48;;;21.41;12.17
64698;BME280;51124;53.394;-6.294;2023-07-31T07:50:41;99406.57;;;21.03;12.01
64698;BME280;51124;53.394;-6.294;2023-07-31T07:53:15;99401.07;;;21.28;12.09
64698;BME280;51124;53.394;-6.294;2023-07-31T07:55:48;99396.49;;;22.30;11.84
64698;BME280;51124;53.394;-6.294;2023-07-31T07:58:22;99390.44;;;21.49;11.87
64698;BME280;51124;53.394;-6.294;2023-07-31T08:00:55;99385.63;;;21.15;11.84
64698;BME280;51124;53.394;-6.294;2023-07-31T08:03:28;99388.07;;;21.36;11.73
64698;BME280;51124;53.394;-6.294;2023-07-31T08:06:02;99390.72;;;19.73;12.45
64698;BME280;51124;53.394;-6.294;2023-07-31T08:08:35;99383.10;;;21.58;11.76
64698;BME280;51124;53.394;-6.294;2023-07-31T08:11:09;99391.20;;;21.84;11.77
64698;BME280;51124;53.394;-6.294;2023-07-31T08:13:42;99398.81;;;21.16;12.05
64698;BME280;51124;53.394;-6.294;2023-07-31T08:16:16;99397.27;;;21.02;11.94
64698;BME280;51124;53.394;-6.294;2023-07-31T08:18:49;99400.39;;;21.39;11.69
64698;BME280;51124;53.394;-6.294;2023-07-31T08:21:23;99419.16;;;21.26;11.59
64698;BME280;51124;53.394;-6.294;2023-07-31T08:23:56;99433.70;;;21.57;11.68
64698;BME280;51124;53.394;-6.294;2023-07-31T08:26:29;99443.10;;;21.79;11.62
64698;BME280;51124;53.394;-6.294;2023-07-31T08:29:03;99453.43;;;21.40;11.84
64698;BME280;51124;53.394;-6.294;2023-07-31T08:31:37;99458.98;;;21.71;11.70
64698;BME280;51124;53.394;-6.294;2023-07-31T08:34:10;99456.33;;;21.30;11.69
64698;BME280;51124;53.394;-6.294;2023-07-31T08:36:43;99461.60;;;22.05;11.27
64698;BME280;51124;53.394;-6.294;2023-07-31T08:39:17;99463.64;;;19.53;11.94
64698;BME280;51124;53.394;-6.294;2023-07-31T08:41:50;99466.80;;;20.19;11.71
64698;BME280;51124;53.394;-6.294;2023-07-31T08:44:23;99458.69;;;19.96;11.83
64698;BME280;51124;53.394;-6.294;2023-07-31T08:46:57;99443.46;;;20.56;11.74
64698;BME280;51124;53.394;-6.294;2023-07-31T08:49:30;99438.91;;;22.55;11.30
64698;BME280;51124;53.394;-6.294;2023-07-31T08:52:05;99433.84;;;22.63;11.39
64698;BME280;51124;53.394;-6.294;2023-07-31T08:54:39;99429.34;;;21.11;11.63
64698;BME280;51124;53.394;-6.294;2023-07-31T08:57:13;99425.73;;;22.26;11.36
64698;BME280;51124;53.394;-6.294;2023-07-31T08:59:47;99417.02;;;22.17;11.46
64698;BME280;51124;53.394;-6.294;2023-07-31T09:02:23;99414.95;;;21.06;11.89
64698;BME280;51124;53.394;-6.294;2023-07-31T09:04:49;99412.43;;;21.68;11.49
64698;BME280;51124;53.394;-6.294;2023-07-31T09:07:23;99405.52;;;21.63;11.50
64698;BME280;51124;53.394;-6.294;2023-07-31T09:09:57;99400.37;;;21.85;11.51
64698;BME280;51124;53.394;-6.294;2023-07-31T09:12:31;99392.77;;;21.78;11.27
64698;BME280;51124;53.394;-6.294;2023-07-31T09:15:06;99393.17;;;21.60;11.38
64698;BME280;51124;53.394;-6.294;2023-07-31T09:17:39;99392.88;;;23.69;11.74
64698;BME280;51124;53.394;-6.294;2023-07-31T09:20:14;99399.38;;;24.24;12.14
64698;BME280;51124;53.394;-6.294;2023-07-31T09:22:48;99409.99;;;22.70;12.53
64698;BME280;51124;53.394;-6.294;2023-07-31T09:25:23;99420.12;;;21.89;12.43
64698;BME280;51124;53.394;-6.294;2023-07-31T09:27:49;99426.98;;;25.03;12.62
64698;BME280;51124;53.394;-6.294;2023-07-31T09:30:13;99431.95;;;24.56;13.34
64698;BME280;51124;53.394;-6.294;2023-07-31T09:32:48;99445.87;;;23.71;13.67
64698;BME280;51124;53.394;-6.294;2023-07-31T09:35:19;99446.27;;;23.52;13.81
64698;BME280;51124;53.394;-6.294;2023-07-31T09:37:42;99448.20;;;24.21;13.71
64698;BME280;51124;53.394;-6.294;2023-07-31T09:40:25;99457.40;;;23.72;14.03
64698;BME280;51124;53.394;-6.294;2023-07-31T09:42:49;99460.62;;;24.37;14.07
64698;BME280;51124;53.394;-6.294;2023-07-31T09:45:23;99456.54;;;23.68;14.21
64698;BME280;51124;53.394;-6.294;2023-07-31T09:47:56;99456.26;;;24.51;14.18
64698;BME280;51124;53.394;-6.294;2023-07-31T09:50:30;99452.93;;;25.03;13.95
64698;BME280;51124;53.394;-6.294;2023-07-31T09:53:04;99450.74;;;23.27;14.38
64698;BME280;51124;53.394;-6.294;2023-07-31T09:55:39;99451.82;;;24.20;14.36
64698;BME280;51124;53.394;-6.294;2023-07-31T09:58:05;99448.00;;;23.39;14.69
64698;BME280;51124;53.394;-6.294;2023-07-31T10:00:30;99445.56;;;24.23;14.34
64698;BME280;51124;53.394;-6.294;2023-07-31T10:03:07;99441.49;;;24.23;14.33
64698;BME280;51124;53.394;-6.294;2023-07-31T10:05:34;99444.25;;;23.87;14.53
64698;BME280;51124;53.394;-6.294;2023-07-31T10:07:58;99429.15;;;24.56;14.20
64698;BME280;51124;53.394;-6.294;2023-07-31T10:10:32;99427.07;;;23.53;14.50
64698;BME280;51124;53.394;-6.294;2023-07-31T10:13:05;99423.91;;;22.52;14.53
64698;BME280;51124;53.394;-6.294;2023-07-31T10:15:40;99425.22;;;23.91;14.42
64698;BME280;51124;53.394;-6.294;2023-07-31T10:18:14;99427.14;;;22.64;14.01
64698;BME280;51124;53.394;-6.294;2023-07-31T10:20:49;99424.58;;;21.91;13.47
64698;BME280;51124;53.394;-6.294;2023-07-31T10:23:25;99424.57;;;21.29;13.29
64698;BME280;51124;53.394;-6.294;2023-07-31T10:25:51;99419.30;;;21.84;12.97
64698;BME280;51124;53.394;-6.294;2023-07-31T10:28:15;99419.16;;;21.88;12.74
64698;BME280;51124;53.394;-6.294;2023-07-31T10:30:49;99414.87;;;21.30;12.73
64698;BME280;51124;53.394;-6.294;2023-07-31T10:33:23;99414.79;;;20.84;12.60
64698;BME280;51124;53.394;-6.294;2023-07-31T10:36:12;99420.03;;;21.65;12.31
64698;BME280;51124;53.394;-6.294;2023-07-31T10:38:25;99414.30;;;21.77;12.22
64698;BME280;51124;53.394;-6.294;2023-07-31T10:41:08;99420.44;;;22.72;12.09
64698;BME280;51124;53.394;-6.294;2023-07-31T10:43:32;99420.89;;;22.80;12.10
64698;BME280;51124;53.394;-6.294;2023-07-31T10:46:06;99425.62;;;21.38;12.27
64698;BME280;51124;53.394;-6.294;2023-07-31T10:48:41;99428.78;;;22.50;11.90
64698;BME280;51124;53.394;-6.294;2023-07-31T10:51:14;99424.02;;;22.06;11.96
64698;BME280;51124;53.394;-6.294;2023-07-31T10:53:48;99421.40;;;22.28;11.96
64698;BME280;51124;53.394;-6.294;2023-07-31T10:56:25;99422.32;;;22.16;11.88
64698;BME280;51124;53.394;-6.294;2023-07-31T10:59:00;99417.15;;;21.93;11.78
64698;BME280;51124;53.394;-6.294;2023-07-31T11:01:49;99412.22;;;21.37;12.03
64698;BME280;51124;53.394;-6.294;2023-07-31T11:03:57;99402.30;;;21.42;11.89
64698;BME280;51124;53.394;-6.294;2023-07-31T11:06:21;99400.34;;;22.06;11.53
64698;BME280;51124;53.394;-6.294;2023-07-31T11:08:54;99394.76;;;22.33;11.59
64698;BME280;51124;53.394;-6.294;2023-07-31T11:11:27;99394.89;;;22.49;11.51
64698;BME280;51124;53.394;-6.294;2023-07-31T11:14:01;99396.28;;;22.37;11.77
64698;BME280;51124;53.394;-6.294;2023-07-31T11:16:34;99396.25;;;21.93;11.77
64698;BME280;51124;53.394;-6.294;2023-07-31T11:19:08;99395.22;;;22.11;11.59
64698;BME280;51124;53.394;-6.294;2023-07-31T11:21:42;99395.33;;;22.02;11.69
64698;BME280;51124;53.394;-6.294;2023-07-31T11:24:15;99396.84;;;22.33;11.60
64698;BME280;51124;53.394;-6.294;2023-07-31T11:26:52;99399.06;;;20.35;12.04
64698;BME280;51124;53.394;-6.294;2023-07-31T11:29:17;99408.96;;;18.91;12.56
64698;BME280;51124;53.394;-6.294;2023-07-31T11:31:43;99414.81;;;20.48;11.99
64698;BME280;51124;53.394;-6.294;2023-07-31T11:34:08;99401.53;;;21.78;11.50
64698;BME280;51124;53.394;-6.294;2023-07-31T11:36:33;99405.55;;;20.63;12.02
64698;BME280;51124;53.394;-6.294;2023-07-31T11:39:05;99402.14;;;20.99;11.64
64698;BME280;51124;53.394;-6.294;2023-07-31T11:41:30;99398.10;;;23.03;11.25
64698;BME280;51124;53.394;-6.294;2023-07-31T11:44:00;99394.04;;;21.56;11.42
64698;BME280;51124;53.394;-6.294;2023-07-31T11:46:24;99396.88;;;21.88;11.21
64698;BME280;51124;53.394;-6.294;2023-07-31T11:48:59;99392.63;;;21.85;11.69
64698;BME280;51124;53.394;-6.294;2023-07-31T11:51:23;99397.48;;;21.79;11.52
64698;BME280;51124;53.394;-6.294;2023-07-31T11:53:58;99390.81;;;21.50;11.36
64698;BME280;51124;53.394;-6.294;2023-07-31T11:56:24;99393.78;;;23.11;11.28
64698;BME280;51124;53.394;-6.294;2023-07-31T11:58:59;99396.47;;;21.79;11.38
64698;BME280;51124;53.394;-6.294;2023-07-31T12:01:23;99389.38;;;22.20;11.47
64698;BME280;51124;53.394;-6.294;2023-07-31T12:03:57;99393.92;;;22.64;11.22
64698;BME280;51124;53.394;-6.294;2023-07-31T12:06:34;99383.86;;;22.47;11.04
64698;BME280;51124;53.394;-6.294;2023-07-31T12:09:02;99383.23;;;22.23;11.39
64698;BME280;51124;53.394;-6.294;2023-07-31T12:11:26;99378.62;;;22.63;10.96
64698;BME280;51124;53.394;-6.294;2023-07-31T12:13:59;99372.23;;;22.89;10.82
64698;BME280;51124;53.394;-6.294;2023-07-31T12:16:32;99368.99;;;23.17;10.61
64698;BME280;51124;53.394;-6.294;2023-07-31T12:19:07;99368.97;;;25.94;10.91
64698;BME280;51124;53.394;-6.294;2023-07-31T12:21:40;99363.85;;;24.42;11.62
64698;BME280;51124;53.394;-6.294;2023-07-31T12:24:14;99357.69;;;23.59;11.50
64698;BME280;51124;53.394;-6.294;2023-07-31T12:26:48;99352.76;;;26.95;11.43
64698;BME280;51124;53.394;-6.294;2023-07-31T12:29:22;99346.23;;;26.73;11.93
64698;BME280;51124;53.394;-6.294;2023-07-31T12:31:56;99348.34;;;25.76;12.37
64698;BME280;51124;53.394;-6.294;2023-07-31T12:34:29;99348.78;;;25.89;12.74
64698;BME280;51124;53.394;-6.294;2023-07-31T12:37:03;99351.19;;;25.26;13.02
64698;BME280;51124;53.394;-6.294;2023-07-31T12:39:29;99347.70;;;25.39;13.12
64698;BME280;51124;53.394;-6.294;2023-07-31T12:42:03;99343.67;;;25.19;13.07
64698;BME280;51124;53.394;-6.294;2023-07-31T12:44:36;99338.74;;;25.53;13.02
64698;BME280;51124;53.394;-6.294;2023-07-31T12:47:10;99337.02;;;25.82;13.17
64698;BME280;51124;53.394;-6.294;2023-07-31T12:49:43;99340.44;;;25.53;13.11
64698;BME280;51124;53.394;-6.294;2023-07-31T12:52:17;99339.27;;;25.32;13.22
64698;BME280;51124;53.394;-6.294;2023-07-31T12:54:51;99339.66;;;26.40;12.61
64698;BME280;51124;53.394;-6.294;2023-07-31T12:57:24;99330.84;;;23.28;13.13
64698;BME280;51124;53.394;-6.294;2023-07-31T12:59:58;99326.79;;;25.34;12.93
64698;BME280;51124;53.394;-6.294;2023-07-31T13:02:31;99319.45;;;25.27;13.15
64698;BME280;51124;53.394;-6.294;2023-07-31T13:05:05;99320.52;;;24.94;13.17